Somerset, Pennsylvania
Current Conditions -  °F | °C
As of 12:39 PM on Friday 31 Oct 2014 (Local Time) from KJST Reporting Station
Overcast Overcast  
Wind Chill: 39°   Ceiling: 3200
Heat Index: 42°   Visibility: 10mi
Dew Point: 33°   Wind: 5mph
Humidity: 70%   Direction: 120°ESE
Pressure: 29.88"   Gusts: NA
Location:  40.01°N, 79.08°W
Report Text: KJST 311639Z AUTO 12004KT 10SM SCT026 OVC032 06/01 A2988 RMK AO2 T00560006
Loading
Personal Weather Stations






























Interactive Weather Map
Tropical Storm Tracking
New forecast layout! Learn more

10-Day Weather Forecast

Advertisements
Track Severe Weather on mobile